KLM5408 LOWS-EHGG
Flight info
| Callsign | KLM5408 |
|---|---|
| Flight time | 1h 8m |
| Altitude | 34000 |
| Route | INROM DCT SIMBA DCT MOOCE L604 RELBI L602 RKN DCT RKN |
| Aircraft | B737/M-SDE2E3FGHIRWXY/LB1 |
Departure
| Time | 2026-05-08 12:06 |
|---|---|
| Airport | Salzburg Airport (LOWS) |
Arrival
| Time | 2026-05-08 13:14 |
|---|---|
| Airport | Groningen Airport Eelde (EHGG) |
| Time | Latitude | Longitude | Altitude | Speed | Heading |
|---|---|---|---|---|---|
| 2026-05-08 11:43 | 47.78971 | 13.00051 | 1425 ft | 0 kts | 282° |
| 2026-05-08 11:56 | 47.78968 | 13.00069 | 1425 ft | 4 kts | 279° |
| 2026-05-08 11:56 | 47.78976 | 13.00110 | 1425 ft | 4 kts | 226° |
| 2026-05-08 11:56 | 47.79002 | 13.00121 | 1425 ft | 4 kts | 164° |
| 2026-05-08 11:56 | 47.79009 | 13.00117 | 1425 ft | 0 kts | 157° |
| 2026-05-08 12:00 | 47.78999 | 13.00124 | 1425 ft | 10 kts | 155° |
| 2026-05-08 12:00 | 47.78964 | 13.00175 | 1425 ft | 9 kts | 116° |
| 2026-05-08 12:01 | 47.78953 | 13.00314 | 1425 ft | 12 kts | 101° |
| 2026-05-08 12:01 | 47.78895 | 13.00404 | 1422 ft | 17 kts | 158° |
| 2026-05-08 12:01 | 47.78784 | 13.00473 | 1423 ft | 17 kts | 157° |
| 2026-05-08 12:01 | 47.78712 | 13.00517 | 1423 ft | 16 kts | 157° |
| 2026-05-08 12:02 | 47.78616 | 13.00579 | 1424 ft | 14 kts | 156° |
| 2026-05-08 12:02 | 47.78528 | 13.00635 | 1424 ft | 16 kts | 156° |
| 2026-05-08 12:02 | 47.78405 | 13.00711 | 1424 ft | 19 kts | 158° |
| 2026-05-08 12:02 | 47.78285 | 13.00786 | 1424 ft | 18 kts | 158° |
| 2026-05-08 12:03 | 47.78197 | 13.00897 | 1422 ft | 16 kts | 114° |
| 2026-05-08 12:03 | 47.78199 | 13.01034 | 1421 ft | 11 kts | 58° |
| 2026-05-08 12:03 | 47.78246 | 13.01081 | 1420 ft | 6 kts | 360° |
| 2026-05-08 12:03 | 47.78265 | 13.01071 | 1420 ft | 0 kts | 336° |
| 2026-05-08 12:04 | 47.78267 | 13.01070 | 1422 ft | 3 kts | 336° |
| 2026-05-08 12:04 | 47.78421 | 13.00972 | 1422 ft | 49 kts | 337° |
| 2026-05-08 12:05 | 47.78889 | 13.00676 | 1422 ft | 97 kts | 336° |
| 2026-05-08 12:05 | 47.79666 | 13.00176 | 1438 ft | 141 kts | 335° |
| 2026-05-08 12:05 | 47.80566 | 12.99644 | 1672 ft | 138 kts | 337° |
| 2026-05-08 12:05 | 47.81520 | 12.99124 | 1862 ft | 150 kts | 342° |
| 2026-05-08 12:06 | 47.82565 | 12.98586 | 1954 ft | 165 kts | 353° |
| 2026-05-08 12:06 | 47.83622 | 12.98928 | 2317 ft | 158 kts | 34° |
| 2026-05-08 12:06 | 47.84350 | 13.00170 | 2536 ft | 164 kts | 53° |
| 2026-05-08 12:06 | 47.85182 | 13.01475 | 2821 ft | 183 kts | 40° |
| 2026-05-08 12:07 | 47.86218 | 13.02707 | 3078 ft | 198 kts | 36° |
| 2026-05-08 12:07 | 47.87382 | 13.03987 | 3365 ft | 217 kts | 36° |
| 2026-05-08 12:07 | 47.88646 | 13.05354 | 3721 ft | 234 kts | 36° |
| 2026-05-08 12:07 | 47.90011 | 13.06830 | 4173 ft | 248 kts | 36° |
| 2026-05-08 12:08 | 47.91428 | 13.08363 | 4875 ft | 254 kts | 36° |
| 2026-05-08 12:08 | 47.92873 | 13.09927 | 5614 ft | 259 kts | 35° |
| 2026-05-08 12:08 | 47.94339 | 13.11515 | 6391 ft | 262 kts | 36° |
| 2026-05-08 12:08 | 47.95828 | 13.13128 | 7046 ft | 268 kts | 35° |
| 2026-05-08 12:09 | 47.97345 | 13.14775 | 7719 ft | 272 kts | 35° |
| 2026-05-08 12:09 | 47.98891 | 13.16443 | 8422 ft | 276 kts | 33° |
| 2026-05-08 12:09 | 48.00612 | 13.17729 | 9058 ft | 279 kts | 12° |
| 2026-05-08 12:09 | 48.02529 | 13.17811 | 9693 ft | 277 kts | 343° |
| 2026-05-08 12:10 | 48.04352 | 13.16932 | 10343 ft | 269 kts | 334° |
| 2026-05-08 12:10 | 48.06012 | 13.15769 | 10585 ft | 265 kts | 328° |
| 2026-05-08 12:10 | 48.07652 | 13.14387 | 10990 ft | 276 kts | 326° |
| 2026-05-08 12:10 | 48.09314 | 13.12909 | 11627 ft | 279 kts | 326° |
| 2026-05-08 12:11 | 48.10995 | 13.11426 | 12310 ft | 282 kts | 327° |
| 2026-05-08 12:11 | 48.12703 | 13.09959 | 12988 ft | 285 kts | 328° |
| 2026-05-08 12:11 | 48.14468 | 13.08482 | 13448 ft | 298 kts | 328° |
| 2026-05-08 12:11 | 48.16339 | 13.06944 | 13755 ft | 315 kts | 329° |
| 2026-05-08 12:12 | 48.18313 | 13.05342 | 14031 ft | 331 kts | 329° |
| 2026-05-08 12:12 | 48.20366 | 13.03687 | 14290 ft | 347 kts | 329° |
| 2026-05-08 12:12 | 48.22512 | 13.01867 | 14545 ft | 361 kts | 325° |
| 2026-05-08 12:12 | 48.24660 | 12.99772 | 14799 ft | 375 kts | 324° |
| 2026-05-08 12:13 | 48.26854 | 12.97530 | 15074 ft | 387 kts | 323° |
| 2026-05-08 12:13 | 48.29078 | 12.95189 | 15523 ft | 393 kts | 323° |
| 2026-05-08 12:13 | 48.31313 | 12.92802 | 16108 ft | 395 kts | 322° |
| 2026-05-08 12:13 | 48.33559 | 12.90389 | 16665 ft | 398 kts | 322° |
| 2026-05-08 12:14 | 48.35824 | 12.87952 | 17215 ft | 402 kts | 322° |
| 2026-05-08 12:14 | 48.38103 | 12.85502 | 17762 ft | 404 kts | 322° |
| 2026-05-08 12:14 | 48.40396 | 12.83038 | 18305 ft | 407 kts | 322° |
| 2026-05-08 12:14 | 48.42710 | 12.80552 | 18773 ft | 409 kts | 322° |
| 2026-05-08 12:15 | 48.45038 | 12.78051 | 19207 ft | 413 kts | 322° |
| 2026-05-08 12:15 | 48.47381 | 12.75532 | 19636 ft | 415 kts | 322° |
| 2026-05-08 12:15 | 48.49743 | 12.72989 | 20078 ft | 418 kts | 322° |
| 2026-05-08 12:15 | 48.52114 | 12.70434 | 20474 ft | 421 kts | 322° |
| 2026-05-08 12:16 | 48.54508 | 12.67852 | 20874 ft | 424 kts | 322° |
| 2026-05-08 12:16 | 48.56916 | 12.65250 | 21288 ft | 427 kts | 322° |
| 2026-05-08 12:16 | 48.59337 | 12.62631 | 21696 ft | 429 kts | 321° |
| 2026-05-08 12:16 | 48.61770 | 12.59996 | 22125 ft | 432 kts | 321° |
| 2026-05-08 12:17 | 48.64224 | 12.57335 | 22547 ft | 435 kts | 321° |
| 2026-05-08 12:17 | 48.66686 | 12.54662 | 22970 ft | 437 kts | 321° |
| 2026-05-08 12:17 | 48.69166 | 12.51966 | 23369 ft | 440 kts | 321° |
| 2026-05-08 12:17 | 48.71656 | 12.49256 | 23747 ft | 442 kts | 321° |
| 2026-05-08 12:18 | 48.74159 | 12.46528 | 24072 ft | 445 kts | 321° |
| 2026-05-08 12:18 | 48.76680 | 12.43779 | 24403 ft | 446 kts | 321° |
| 2026-05-08 12:18 | 48.79201 | 12.41026 | 24732 ft | 448 kts | 321° |
| 2026-05-08 12:18 | 48.81735 | 12.38254 | 25055 ft | 450 kts | 321° |
| 2026-05-08 12:19 | 48.84280 | 12.35466 | 25362 ft | 452 kts | 320° |
| 2026-05-08 12:19 | 48.86827 | 12.32673 | 25702 ft | 453 kts | 321° |
| 2026-05-08 12:19 | 48.89388 | 12.29860 | 26022 ft | 454 kts | 321° |
| 2026-05-08 12:19 | 48.91946 | 12.27049 | 26429 ft | 453 kts | 321° |
| 2026-05-08 12:20 | 48.94496 | 12.24244 | 26837 ft | 451 kts | 320° |
| 2026-05-08 12:20 | 48.97003 | 12.21482 | 27226 ft | 450 kts | 320° |
| 2026-05-08 12:20 | 48.99533 | 12.18691 | 27605 ft | 450 kts | 320° |
| 2026-05-08 12:20 | 49.02062 | 12.15898 | 27971 ft | 449 kts | 320° |
| 2026-05-08 12:21 | 49.04587 | 12.13103 | 28335 ft | 448 kts | 320° |
| 2026-05-08 12:21 | 49.07103 | 12.10316 | 28687 ft | 447 kts | 320° |
| 2026-05-08 12:21 | 49.09619 | 12.07525 | 29037 ft | 446 kts | 320° |
| 2026-05-08 12:21 | 49.12127 | 12.04738 | 29388 ft | 446 kts | 320° |
| 2026-05-08 12:22 | 49.14631 | 12.01951 | 29642 ft | 447 kts | 320° |
| 2026-05-08 12:22 | 49.17146 | 11.99147 | 29877 ft | 448 kts | 321° |
| 2026-05-08 12:22 | 49.19665 | 11.96338 | 30163 ft | 448 kts | 321° |
| 2026-05-08 12:22 | 49.22178 | 11.93534 | 30448 ft | 447 kts | 321° |
| 2026-05-08 12:23 | 49.24687 | 11.90730 | 30702 ft | 446 kts | 321° |
| 2026-05-08 12:23 | 49.27193 | 11.87926 | 30937 ft | 446 kts | 321° |
| 2026-05-08 12:23 | 49.29692 | 11.85125 | 31171 ft | 445 kts | 321° |
| 2026-05-08 12:23 | 49.32190 | 11.82321 | 31396 ft | 445 kts | 321° |
| 2026-05-08 12:24 | 49.34688 | 11.79515 | 31612 ft | 445 kts | 321° |
| 2026-05-08 12:24 | 49.37180 | 11.76711 | 31835 ft | 444 kts | 321° |
| 2026-05-08 12:24 | 49.39669 | 11.73907 | 32072 ft | 443 kts | 321° |
| 2026-05-08 12:24 | 49.42148 | 11.71110 | 32288 ft | 443 kts | 321° |
| 2026-05-08 12:25 | 49.44633 | 11.68304 | 32482 ft | 443 kts | 321° |
| 2026-05-08 12:25 | 49.47116 | 11.65495 | 32617 ft | 443 kts | 321° |
| 2026-05-08 12:25 | 49.49596 | 11.62686 | 32796 ft | 443 kts | 321° |
| 2026-05-08 12:25 | 49.52083 | 11.59866 | 32985 ft | 443 kts | 321° |
| 2026-05-08 12:26 | 49.54560 | 11.57054 | 33173 ft | 443 kts | 320° |
| 2026-05-08 12:26 | 49.56912 | 11.54021 | 33338 ft | 440 kts | 314° |
| 2026-05-08 12:26 | 49.59112 | 11.50746 | 33500 ft | 439 kts | 313° |
| 2026-05-08 12:26 | 49.61269 | 11.47420 | 33649 ft | 439 kts | 312° |
| 2026-05-08 12:27 | 49.63405 | 11.44052 | 33816 ft | 438 kts | 311° |
| 2026-05-08 12:27 | 49.65516 | 11.40685 | 34053 ft | 436 kts | 311° |
| 2026-05-08 12:27 | 49.69729 | 11.33931 | 34102 ft | 436 kts | 311° |
| 2026-05-08 12:28 | 49.73941 | 11.27182 | 34109 ft | 437 kts | 311° |
| 2026-05-08 12:28 | 49.78161 | 11.20420 | 34107 ft | 437 kts | 311° |
| 2026-05-08 12:29 | 49.82351 | 11.13695 | 34110 ft | 437 kts | 311° |
| 2026-05-08 12:29 | 49.86566 | 11.06910 | 34106 ft | 437 kts | 311° |
| 2026-05-08 12:30 | 49.90774 | 11.00120 | 34117 ft | 436 kts | 311° |
| 2026-05-08 12:30 | 49.94964 | 10.93338 | 34127 ft | 434 kts | 311° |
| 2026-05-08 12:31 | 49.99139 | 10.86560 | 34109 ft | 434 kts | 311° |
| 2026-05-08 12:31 | 50.03316 | 10.79762 | 34118 ft | 434 kts | 311° |
| 2026-05-08 12:32 | 50.07486 | 10.72958 | 34118 ft | 434 kts | 311° |
| 2026-05-08 12:32 | 50.11656 | 10.66142 | 34125 ft | 434 kts | 311° |
| 2026-05-08 12:33 | 50.15818 | 10.59322 | 34121 ft | 434 kts | 311° |
| 2026-05-08 12:33 | 50.19974 | 10.52489 | 34124 ft | 433 kts | 310° |
| 2026-05-08 12:34 | 50.24125 | 10.45686 | 34131 ft | 433 kts | 311° |
| 2026-05-08 12:34 | 50.28323 | 10.38930 | 34130 ft | 433 kts | 311° |
| 2026-05-08 12:35 | 50.32525 | 10.32181 | 34133 ft | 433 kts | 311° |
| 2026-05-08 12:35 | 50.36638 | 10.25316 | 34131 ft | 432 kts | 308° |
| 2026-05-08 12:36 | 50.40647 | 10.18303 | 34135 ft | 433 kts | 310° |
| 2026-05-08 12:36 | 50.44801 | 10.11451 | 34137 ft | 433 kts | 310° |
| 2026-05-08 12:37 | 50.48879 | 10.04581 | 34128 ft | 432 kts | 310° |
| 2026-05-08 12:37 | 50.52943 | 9.97630 | 34131 ft | 432 kts | 309° |
| 2026-05-08 12:38 | 50.56888 | 9.90529 | 34132 ft | 431 kts | 307° |
| 2026-05-08 12:38 | 50.60701 | 9.83254 | 34133 ft | 431 kts | 306° |
| 2026-05-08 12:39 | 50.64504 | 9.75950 | 34134 ft | 432 kts | 307° |
| 2026-05-08 12:39 | 50.68326 | 9.68636 | 34135 ft | 432 kts | 307° |
| 2026-05-08 12:40 | 50.72151 | 9.61321 | 34136 ft | 432 kts | 307° |
| 2026-05-08 12:40 | 50.75973 | 9.54007 | 34135 ft | 432 kts | 307° |
| 2026-05-08 12:41 | 50.79799 | 9.46674 | 34136 ft | 432 kts | 307° |
| 2026-05-08 12:41 | 50.83620 | 9.39331 | 34142 ft | 432 kts | 306° |
| 2026-05-08 12:42 | 50.87440 | 9.31964 | 34147 ft | 433 kts | 306° |
| 2026-05-08 12:42 | 50.91262 | 9.24573 | 34148 ft | 433 kts | 306° |
| 2026-05-08 12:43 | 50.95073 | 9.17181 | 34152 ft | 433 kts | 306° |
| 2026-05-08 12:43 | 50.98885 | 9.09767 | 34159 ft | 433 kts | 306° |
| 2026-05-08 12:44 | 51.02681 | 9.02364 | 34147 ft | 432 kts | 306° |
| 2026-05-08 12:44 | 51.06445 | 8.95000 | 34149 ft | 432 kts | 306° |
| 2026-05-08 12:45 | 51.10250 | 8.87534 | 34144 ft | 432 kts | 306° |
| 2026-05-08 12:45 | 51.14004 | 8.80148 | 34140 ft | 432 kts | 306° |
| 2026-05-08 12:46 | 51.17777 | 8.72698 | 34139 ft | 432 kts | 306° |
| 2026-05-08 12:46 | 51.21540 | 8.65245 | 34133 ft | 432 kts | 306° |
| 2026-05-08 12:47 | 51.25302 | 8.57774 | 34135 ft | 432 kts | 306° |
| 2026-05-08 12:47 | 51.29064 | 8.50280 | 34136 ft | 432 kts | 306° |
| 2026-05-08 12:48 | 51.32814 | 8.42793 | 34125 ft | 432 kts | 306° |
| 2026-05-08 12:48 | 51.36581 | 8.35307 | 34128 ft | 432 kts | 306° |
| 2026-05-08 12:49 | 51.39739 | 8.29036 | 34132 ft | 432 kts | 306° |
| 2026-05-08 12:49 | 51.43500 | 8.21548 | 34121 ft | 432 kts | 306° |
| 2026-05-08 12:50 | 51.47236 | 8.14082 | 34130 ft | 432 kts | 306° |
| 2026-05-08 12:50 | 51.50995 | 8.06546 | 34135 ft | 432 kts | 306° |
| 2026-05-08 12:51 | 51.56652 | 7.95161 | 33865 ft | 433 kts | 306° |
| 2026-05-08 12:51 | 51.58501 | 7.91429 | 33671 ft | 432 kts | 306° |
| 2026-05-08 12:52 | 51.60376 | 7.87638 | 32813 ft | 435 kts | 306° |
| 2026-05-08 12:52 | 51.64149 | 7.79994 | 31361 ft | 437 kts | 306° |
| 2026-05-08 12:52 | 51.66038 | 7.76158 | 30619 ft | 438 kts | 306° |
| 2026-05-08 12:53 | 51.67935 | 7.72300 | 29820 ft | 440 kts | 306° |
| 2026-05-08 12:53 | 51.69838 | 7.68426 | 28974 ft | 441 kts | 306° |
| 2026-05-08 12:53 | 51.71742 | 7.64542 | 28180 ft | 441 kts | 306° |
| 2026-05-08 12:53 | 51.73641 | 7.60665 | 27388 ft | 441 kts | 306° |
| 2026-05-08 12:54 | 51.75544 | 7.56772 | 26521 ft | 443 kts | 306° |
| 2026-05-08 12:54 | 51.77458 | 7.52850 | 25659 ft | 445 kts | 306° |
| 2026-05-08 12:54 | 51.79371 | 7.48924 | 24767 ft | 447 kts | 306° |
| 2026-05-08 12:54 | 51.81284 | 7.44995 | 24338 ft | 442 kts | 307° |
| 2026-05-08 12:55 | 51.83210 | 7.41031 | 24104 ft | 452 kts | 307° |
| 2026-05-08 12:55 | 51.85160 | 7.37010 | 23870 ft | 455 kts | 307° |
| 2026-05-08 12:55 | 51.87109 | 7.32987 | 23626 ft | 454 kts | 307° |
| 2026-05-08 12:55 | 51.89055 | 7.28966 | 23346 ft | 452 kts | 307° |
| 2026-05-08 12:56 | 51.90988 | 7.24963 | 23072 ft | 451 kts | 307° |
| 2026-05-08 12:56 | 51.92916 | 7.20967 | 22797 ft | 449 kts | 307° |
| 2026-05-08 12:56 | 51.94830 | 7.16990 | 22526 ft | 447 kts | 306° |
| 2026-05-08 12:56 | 51.96739 | 7.13018 | 22253 ft | 445 kts | 306° |
| 2026-05-08 12:57 | 51.98637 | 7.09062 | 21987 ft | 443 kts | 306° |
| 2026-05-08 12:57 | 52.00525 | 7.05121 | 21714 ft | 442 kts | 306° |
| 2026-05-08 12:57 | 52.02408 | 7.01185 | 21447 ft | 440 kts | 306° |
| 2026-05-08 12:57 | 52.04279 | 6.97270 | 21193 ft | 438 kts | 306° |
| 2026-05-08 12:58 | 52.06143 | 6.93360 | 20949 ft | 437 kts | 306° |
| 2026-05-08 12:58 | 52.07998 | 6.89464 | 20684 ft | 435 kts | 306° |
| 2026-05-08 12:58 | 52.09848 | 6.85573 | 20437 ft | 434 kts | 306° |
| 2026-05-08 12:58 | 52.11561 | 6.81561 | 20185 ft | 431 kts | 299° |
| 2026-05-08 12:59 | 52.13044 | 6.77331 | 19935 ft | 430 kts | 301° |
| 2026-05-08 12:59 | 52.14778 | 6.73364 | 19686 ft | 429 kts | 306° |
| 2026-05-08 12:59 | 52.16602 | 6.69610 | 19428 ft | 428 kts | 307° |
| 2026-05-08 12:59 | 52.18460 | 6.65842 | 19120 ft | 423 kts | 307° |
| 2026-05-08 13:00 | 52.20291 | 6.62117 | 18506 ft | 419 kts | 307° |
| 2026-05-08 13:00 | 52.22101 | 6.58418 | 17788 ft | 416 kts | 307° |
| 2026-05-08 13:00 | 52.23893 | 6.54741 | 17109 ft | 411 kts | 307° |
| 2026-05-08 13:00 | 52.25664 | 6.51098 | 16457 ft | 407 kts | 307° |
| 2026-05-08 13:01 | 52.27411 | 6.47494 | 15812 ft | 404 kts | 307° |
| 2026-05-08 13:01 | 52.29147 | 6.43907 | 15142 ft | 401 kts | 307° |
| 2026-05-08 13:01 | 52.30870 | 6.40340 | 14497 ft | 399 kts | 307° |
| 2026-05-08 13:01 | 52.32583 | 6.36791 | 13839 ft | 397 kts | 307° |
| 2026-05-08 13:02 | 52.34285 | 6.33257 | 13150 ft | 394 kts | 307° |
| 2026-05-08 13:02 | 52.36037 | 6.29835 | 12524 ft | 391 kts | 313° |
| 2026-05-08 13:02 | 52.38164 | 6.27108 | 11888 ft | 390 kts | 330° |
| 2026-05-08 13:02 | 52.40680 | 6.25594 | 11549 ft | 379 kts | 348° |
| 2026-05-08 13:03 | 52.43245 | 6.25221 | 11463 ft | 362 kts | 358° |
| 2026-05-08 13:03 | 52.45700 | 6.25210 | 11371 ft | 345 kts | 359° |
| 2026-05-08 13:03 | 52.48043 | 6.25254 | 11238 ft | 330 kts | 0° |
| 2026-05-08 13:03 | 52.50292 | 6.25492 | 10989 ft | 320 kts | 4° |
| 2026-05-08 13:04 | 52.52478 | 6.25811 | 10780 ft | 309 kts | 5° |
| 2026-05-08 13:04 | 52.54580 | 6.26142 | 10587 ft | 299 kts | 5° |
| 2026-05-08 13:04 | 52.56644 | 6.26482 | 10144 ft | 298 kts | 6° |
| 2026-05-08 13:04 | 52.58703 | 6.26829 | 9733 ft | 296 kts | 6° |
| 2026-05-08 13:05 | 52.60735 | 6.27178 | 9359 ft | 292 kts | 6° |
| 2026-05-08 13:05 | 52.62739 | 6.27524 | 8998 ft | 288 kts | 6° |
| 2026-05-08 13:05 | 52.64723 | 6.27869 | 8633 ft | 285 kts | 6° |
| 2026-05-08 13:05 | 52.66690 | 6.28212 | 8275 ft | 283 kts | 6° |
| 2026-05-08 13:06 | 52.68636 | 6.28552 | 7922 ft | 281 kts | 6° |
| 2026-05-08 13:06 | 52.70574 | 6.28891 | 7562 ft | 279 kts | 6° |
| 2026-05-08 13:06 | 52.72495 | 6.29227 | 7216 ft | 277 kts | 7° |
| 2026-05-08 13:06 | 52.74403 | 6.29561 | 6877 ft | 274 kts | 6° |
| 2026-05-08 13:07 | 52.76290 | 6.29892 | 6531 ft | 273 kts | 7° |
| 2026-05-08 13:07 | 52.78189 | 6.30224 | 6063 ft | 275 kts | 7° |
| 2026-05-08 13:07 | 52.80093 | 6.30559 | 5803 ft | 276 kts | 7° |
| 2026-05-08 13:07 | 52.81998 | 6.30896 | 5535 ft | 275 kts | 7° |
| 2026-05-08 13:08 | 52.83894 | 6.31229 | 5288 ft | 273 kts | 7° |
| 2026-05-08 13:08 | 52.85773 | 6.31556 | 5022 ft | 270 kts | 9° |
| 2026-05-08 13:08 | 52.87630 | 6.31882 | 4765 ft | 265 kts | 8° |
| 2026-05-08 13:08 | 52.89430 | 6.32200 | 4496 ft | 257 kts | 8° |
| 2026-05-08 13:09 | 52.91197 | 6.32512 | 4231 ft | 253 kts | 9° |
| 2026-05-08 13:09 | 52.92944 | 6.32822 | 3972 ft | 253 kts | 9° |
| 2026-05-08 13:09 | 52.94671 | 6.33128 | 3748 ft | 244 kts | 9° |
| 2026-05-08 13:09 | 52.96318 | 6.33418 | 3499 ft | 234 kts | 9° |
| 2026-05-08 13:10 | 52.97926 | 6.33703 | 3239 ft | 231 kts | 9° |
| 2026-05-08 13:10 | 52.99518 | 6.34007 | 2983 ft | 230 kts | 14° |
| 2026-05-08 13:10 | 53.00961 | 6.35002 | 2747 ft | 223 kts | 40° |
| 2026-05-08 13:10 | 53.02030 | 6.36801 | 2544 ft | 213 kts | 52° |
| 2026-05-08 13:11 | 53.02921 | 6.38664 | 2329 ft | 200 kts | 54° |
| 2026-05-08 13:11 | 53.03739 | 6.40431 | 2133 ft | 186 kts | 54° |
| 2026-05-08 13:11 | 53.04496 | 6.42062 | 1965 ft | 171 kts | 54° |
| 2026-05-08 13:11 | 53.05214 | 6.43598 | 1973 ft | 167 kts | 54° |
| 2026-05-08 13:12 | 53.05915 | 6.45092 | 1654 ft | 164 kts | 54° |
| 2026-05-08 13:12 | 53.06593 | 6.46539 | 1431 ft | 152 kts | 53° |
| 2026-05-08 13:12 | 53.07235 | 6.47899 | 1037 ft | 146 kts | 52° |
| 2026-05-08 13:12 | 53.07873 | 6.49242 | 836 ft | 151 kts | 55° |
| 2026-05-08 13:13 | 53.08524 | 6.50610 | 723 ft | 151 kts | 55° |
| 2026-05-08 13:13 | 53.09179 | 6.51995 | 596 ft | 153 kts | 56° |
| 2026-05-08 13:13 | 53.09840 | 6.53386 | 487 ft | 153 kts | 54° |
| 2026-05-08 13:13 | 53.10493 | 6.54778 | 315 ft | 153 kts | 54° |
| 2026-05-08 13:14 | 53.11134 | 6.56128 | 85 ft | 145 kts | 55° |
| 2026-05-08 13:14 | 53.11710 | 6.57381 | 29 ft | 121 kts | 51° |
| 2026-05-08 13:14 | 53.12133 | 6.58259 | 29 ft | 53 kts | 52° |
| 2026-05-08 13:14 | 53.12336 | 6.58688 | 22 ft | 40 kts | 52° |
| 2026-05-08 13:15 | 53.12459 | 6.58945 | 23 ft | 21 kts | 50° |
| 2026-05-08 13:15 | 53.12545 | 6.58973 | 25 ft | 11 kts | 341° |
| 2026-05-08 13:15 | 53.12602 | 6.58912 | 22 ft | 9 kts | 312° |
| 2026-05-08 13:15 | 53.12645 | 6.58832 | 22 ft | 8 kts | 311° |
| 2026-05-08 13:16 | 53.12647 | 6.58828 | 22 ft | 0 kts | 311° |
| 2026-05-08 13:16 | 53.12665 | 6.58791 | 22 ft | 9 kts | 309° |
| 2026-05-08 13:16 | 53.12704 | 6.58710 | 22 ft | 10 kts | 308° |
| 2026-05-08 13:16 | 53.12740 | 6.58615 | 24 ft | 11 kts | 303° |
| 2026-05-08 13:17 | 53.12771 | 6.58563 | 22 ft | 0 kts | 335° |
| 2026-05-08 13:17 | 53.12772 | 6.58563 | 22 ft | 0 kts | 338° |